PWSweather.com
Personal Weather Stations
Station Observations
KNCCHINA3
Red Tractor Trail, China Grove, NC 28023

Red Tractor TrailChina Grove, NC 28023

Lat: 35.59751, Lon: -80.60201

Elevation: 800

Station Type: Oregon Scientific WMR 968

http://www.joesweathergarage.com

High Low Average
Temperature 60.2°F15.7°C 32.3°F0.2°C 49.7°F9.8°C
Dew Point 56.0°F13.3°C 31.1°F-0.5°C 43.5°F6.4°C
Winds 7.4 mph 11.9 kmh Calm Calm 3.0 mph S4.8 kmh S
Wind Gusts 15.6 mph25.1 kmh -- 5.0 mph8.0 kmh
Humidity 98% 61% 80%
Pressure 30.50 in1032.8 mb 30.21 in1023.0 mb -
Precipitation 0.00 in0.0 mm - -
Hour Temp Dew Point Humidity Winds Wind Gusts Pressure Precip Precip Rate Daily Precip Total
12:04 AM 41.6°F5.3°C 33.3°F0.7°C 72% Calm Calm -- 30.53 in1033.9 mb 0.00 in0.0 mm 0.00 in0.0 mm 0.00 in0.0 mm
12:09 AM 41.4°F5.2°C 33.1°F0.6°C 72% Calm Calm -- 30.53 in1033.9 mb 0.00 in0.0 mm 0.00 in0.0 mm 0.00 in0.0 mm
12:49 AM 41.4°F5.2°C 33.5°F0.8°C 73% Calm Calm -- 30.50 in1032.8 mb 0.00 in0.0 mm 0.00 in0.0 mm 0.00 in0.0 mm
12:55 AM 41.3°F5.2°C 33.4°F0.8°C 73% Calm Calm -- 30.50 in1032.8 mb 0.00 in0.0 mm 0.00 in0.0 mm 0.00 in0.0 mm
01:00 AM 41.3°F5.2°C 33.7°F0.9°C 74% Calm Calm -- 30.47 in1031.8 mb 0.00 in0.0 mm 0.00 in0.0 mm 0.00 in0.0 mm
01:05 AM 41.3°F5.2°C 33.7°F0.9°C 74% Calm Calm -- 30.47 in1031.8 mb 0.00 in0.0 mm 0.00 in0.0 mm 0.00 in0.0 mm
01:34 AM 41.1°F5.1°C 33.2°F0.7°C 73% Calm Calm -- 30.50 in1032.8 mb 0.00 in0.0 mm 0.00 in0.0 mm 0.00 in0.0 mm
01:42 AM 41.1°F5.1°C 33.5°F0.8°C 74% Calm Calm -- 30.50 in1032.8 mb 0.00 in0.0 mm 0.00 in0.0 mm 0.00 in0.0 mm
01:47 AM 41.1°F5.1°C 33.5°F0.8°C 74% Calm Calm -- 30.50 in1032.8 mb 0.00 in0.0 mm 0.00 in0.0 mm 0.00 in0.0 mm
01:52 AM 41.1°F5.1°C 33.5°F0.8°C 74% Calm Calm -- 30.50 in1032.8 mb 0.00 in0.0 mm 0.00 in0.0 mm 0.00 in0.0 mm
01:57 AM 41.1°F5.1°C 33.5°F0.8°C 74% Calm Calm -- 30.50 in1032.8 mb 0.00 in0.0 mm 0.00 in0.0 mm 0.00 in0.0 mm
02:19 AM 40.9°F4.9°C 33.6°F0.9°C 75% Calm Calm -- 30.47 in1031.8 mb 0.00 in0.0 mm 0.00 in0.0 mm 0.00 in0.0 mm
02:24 AM 40.7°F4.8°C 33.8°F1.0°C 76% Calm Calm -- 30.47 in1031.8 mb 0.00 in0.0 mm 0.00 in0.0 mm 0.00 in0.0 mm
02:29 AM 40.5°F4.7°C 33.3°F0.7°C 75% Calm Calm -- 30.47 in1031.8 mb 0.00 in0.0 mm 0.00 in0.0 mm 0.00 in0.0 mm
02:34 AM 40.4°F4.7°C 33.5°F0.8°C 76% Calm Calm -- 30.47 in1031.8 mb 0.00 in0.0 mm 0.00 in0.0 mm 0.00 in0.0 mm
02:39 AM 40.2°F4.6°C 33.3°F0.7°C 76% Calm Calm -- 30.47 in1031.8 mb 0.00 in0.0 mm 0.00 in0.0 mm 0.00 in0.0 mm
03:02 AM 38.9°F3.8°C 32.0°F0.0°C 76% 2.2 mph ESE3.5 kmh ESE 2.2 mph3.5 kmh 30.47 in1031.8 mb 0.00 in0.0 mm 0.00 in0.0 mm 0.00 in0.0 mm
03:07 AM 38.6°F3.7°C 32.1°F0.1°C 77% Calm Calm 2.2 mph3.5 kmh 30.47 in1031.8 mb 0.00 in0.0 mm 0.00 in0.0 mm 0.00 in0.0 mm
03:12 AM 38.4°F3.6°C 32.2°F0.1°C 78% Calm Calm 2.2 mph3.5 kmh 30.45 in1031.2 mb 0.00 in0.0 mm 0.00 in0.0 mm 0.00 in0.0 mm
03:17 AM 38.0°F3.3°C 32.1°F0.1°C 79% Calm Calm -- 30.45 in1031.2 mb 0.00 in0.0 mm 0.00 in0.0 mm 0.00 in0.0 mm
03:47 AM 36.8°F2.7°C 31.8°F-0.1°C 82% Calm Calm -- 30.45 in1031.2 mb 0.00 in0.0 mm 0.00 in0.0 mm 0.00 in0.0 mm
03:52 AM 36.6°F2.6°C 31.6°F-0.2°C 82% Calm Calm -- 30.45 in1031.2 mb 0.00 in0.0 mm 0.00 in0.0 mm 0.00 in0.0 mm
03:57 AM 36.4°F2.4°C 31.4°F-0.3°C 82% Calm Calm -- 30.45 in1031.2 mb 0.00 in0.0 mm 0.00 in0.0 mm 0.00 in0.0 mm
04:02 AM 36.2°F2.3°C 31.5°F-0.3°C 83% Calm Calm -- 30.42 in1030.1 mb 0.00 in0.0 mm 0.00 in0.0 mm 0.00 in0.0 mm
04:32 AM 35.0°F1.7°C 31.2°F-0.4°C 86% Calm Calm -- 30.45 in1031.2 mb 0.00 in0.0 mm 0.00 in0.0 mm 0.00 in0.0 mm
04:37 AM 35.0°F1.7°C 31.2°F-0.4°C 86% 2.5 mph ESE4.0 kmh ESE 3.2 mph5.1 kmh 30.45 in1031.2 mb 0.00 in0.0 mm 0.00 in0.0 mm 0.00 in0.0 mm
04:42 AM 35.0°F1.7°C 31.8°F-0.1°C 88% 1.8 mph ESE2.9 kmh ESE 3.2 mph5.1 kmh 30.45 in1031.2 mb 0.00 in0.0 mm 0.00 in0.0 mm 0.00 in0.0 mm
04:47 AM 34.8°F1.6°C 31.6°F-0.2°C 88% Calm Calm 3.2 mph5.1 kmh 30.45 in1031.2 mb 0.00 in0.0 mm 0.00 in0.0 mm 0.00 in0.0 mm
04:52 AM 34.8°F1.6°C 31.6°F-0.2°C 88% Calm Calm -- 30.45 in1031.2 mb 0.00 in0.0 mm 0.00 in0.0 mm 0.00 in0.0 mm
05:16 AM 34.1°F1.2°C 32.8°F0.4°C 95% Calm Calm -- 30.42 in1030.1 mb 0.00 in0.0 mm 0.00 in0.0 mm 0.00 in0.0 mm
05:21 AM 33.9°F1.1°C 31.8°F-0.1°C 92% Calm Calm -- 30.42 in1030.1 mb 0.00 in0.0 mm 0.00 in0.0 mm 0.00 in0.0 mm
05:26 AM 33.7°F0.9°C 31.3°F-0.4°C 91% Calm Calm -- 30.42 in1030.1 mb 0.00 in0.0 mm 0.00 in0.0 mm 0.00 in0.0 mm
05:31 AM 33.7°F0.9°C 31.6°F-0.2°C 92% Calm Calm -- 30.45 in1031.2 mb 0.00 in0.0 mm 0.00 in0.0 mm 0.00 in0.0 mm
05:36 AM 33.5°F0.8°C 31.7°F-0.2°C 93% Calm Calm -- 30.45 in1031.2 mb 0.00 in0.0 mm 0.00 in0.0 mm 0.00 in0.0 mm
06:00 AM 33.2°F0.7°C 31.4°F-0.3°C 93% Calm Calm -- 30.42 in1030.1 mb 0.00 in0.0 mm 0.00 in0.0 mm 0.00 in0.0 mm
06:05 AM 33.0°F0.6°C 31.4°F-0.3°C 94% Calm Calm -- 30.42 in1030.1 mb 0.00 in0.0 mm 0.00 in0.0 mm 0.00 in0.0 mm
06:10 AM 33.0°F0.6°C 31.2°F-0.4°C 93% Calm Calm -- 30.42 in1030.1 mb 0.00 in0.0 mm 0.00 in0.0 mm 0.00 in0.0 mm
06:15 AM 32.8°F0.4°C 31.2°F-0.4°C 94% 2.0 mph ESE3.2 kmh ESE 2.6 mph4.2 kmh 30.42 in1030.1 mb 0.00 in0.0 mm 0.00 in0.0 mm 0.00 in0.0 mm
06:44 AM 32.4°F0.2°C 31.1°F-0.5°C 95% Calm Calm -- 30.45 in1031.2 mb 0.00 in0.0 mm 0.00 in0.0 mm 0.00 in0.0 mm
06:50 AM 32.3°F0.2°C 31.3°F-0.4°C 96% Calm Calm -- 30.45 in1031.2 mb 0.00 in0.0 mm 0.00 in0.0 mm 0.00 in0.0 mm
06:55 AM 32.4°F0.2°C 31.4°F-0.3°C 96% Calm Calm -- 30.45 in1031.2 mb 0.00 in0.0 mm 0.00 in0.0 mm 0.00 in0.0 mm
07:01 AM 32.6°F0.3°C 31.6°F-0.2°C 96% Calm Calm -- 30.45 in1031.2 mb 0.00 in0.0 mm 0.00 in0.0 mm 0.00 in0.0 mm
07:24 AM 33.3°F0.7°C 32.8°F0.4°C 98% Calm Calm -- 30.45 in1031.2 mb 0.00 in0.0 mm 0.00 in0.0 mm 0.00 in0.0 mm
07:29 AM 33.5°F0.8°C 33.0°F0.6°C 98% Calm Calm -- 30.45 in1031.2 mb 0.00 in0.0 mm 0.00 in0.0 mm 0.00 in0.0 mm
07:34 AM 33.9°F1.1°C 33.4°F0.8°C 98% Calm Calm -- 30.45 in1031.2 mb 0.00 in0.0 mm 0.00 in0.0 mm 0.00 in0.0 mm
07:39 AM 34.2°F1.2°C 33.7°F0.9°C 98% Calm Calm -- 30.45 in1031.2 mb 0.00 in0.0 mm 0.00 in0.0 mm 0.00 in0.0 mm
08:08 AM 35.0°F1.7°C 34.5°F1.4°C 98% Calm Calm -- 30.45 in1031.2 mb 0.00 in0.0 mm 0.00 in0.0 mm 0.00 in0.0 mm
08:13 AM 35.1°F1.7°C 34.6°F1.4°C 98% Calm Calm -- 30.45 in1031.2 mb 0.00 in0.0 mm 0.00 in0.0 mm 0.00 in0.0 mm
08:18 AM 35.1°F1.7°C 34.6°F1.4°C 98% Calm Calm -- 30.45 in1031.2 mb 0.00 in0.0 mm 0.00 in0.0 mm 0.00 in0.0 mm
08:23 AM 35.3°F1.8°C 34.8°F1.6°C 98% 2.1 mph E3.4 kmh E 2.6 mph4.2 kmh 30.45 in1031.2 mb 0.00 in0.0 mm 0.00 in0.0 mm 0.00 in0.0 mm
08:41 AM 36.8°F2.7°C 36.3°F2.4°C 98% Calm Calm 5.4 mph8.7 kmh 30.42 in1030.1 mb 0.00 in0.0 mm 0.00 in0.0 mm 0.00 in0.0 mm
08:49 AM 39.1°F3.9°C 38.6°F3.7°C 98% Calm Calm -- 30.45 in1031.2 mb 0.00 in0.0 mm 0.00 in0.0 mm 0.00 in0.0 mm
08:54 AM 39.8°F4.3°C 39.3°F4.1°C 98% 2.2 mph ESE3.5 kmh ESE 4.0 mph6.4 kmh 30.45 in1031.2 mb 0.00 in0.0 mm 0.00 in0.0 mm 0.00 in0.0 mm
08:59 AM 39.6°F4.2°C 38.8°F3.8°C 97% Calm Calm 4.0 mph6.4 kmh 30.47 in1031.8 mb 0.00 in0.0 mm 0.00 in0.0 mm 0.00 in0.0 mm
09:04 AM 39.6°F4.2°C 38.5°F3.6°C 96% Calm Calm 2.6 mph4.2 kmh 30.47 in1031.8 mb 0.00 in0.0 mm 0.00 in0.0 mm 0.00 in0.0 mm
09:26 AM 40.2°F4.6°C 38.6°F3.7°C 94% 3.9 mph S6.3 kmh S 15.6 mph25.1 kmh 30.45 in1031.2 mb 0.00 in0.0 mm 0.00 in0.0 mm 0.00 in0.0 mm
09:31 AM 40.5°F4.7°C 38.6°F3.7°C 93% 3.5 mph SSE5.6 kmh SSE 5.4 mph8.7 kmh 30.45 in1031.2 mb 0.00 in0.0 mm 0.00 in0.0 mm 0.00 in0.0 mm
09:36 AM 41.3°F5.2°C 39.4°F4.1°C 93% 2.5 mph SSW4.0 kmh SSW 5.0 mph8.0 kmh 30.45 in1031.2 mb 0.00 in0.0 mm 0.00 in0.0 mm 0.00 in0.0 mm
09:42 AM 41.8°F5.4°C 39.3°F4.1°C 91% 3.1 mph SW5.0 kmh SW 5.0 mph8.0 kmh 30.45 in1031.2 mb 0.00 in0.0 mm 0.00 in0.0 mm 0.00 in0.0 mm
09:47 AM 42.3°F5.7°C 39.2°F4.0°C 89% 4.6 mph SW7.4 kmh SW 6.8 mph10.9 kmh 30.45 in1031.2 mb 0.00 in0.0 mm 0.00 in0.0 mm 0.00 in0.0 mm
09:53 AM 42.9°F6.1°C 39.0°F3.9°C 86% 4.2 mph WSW6.8 kmh WSW 6.8 mph10.9 kmh 30.45 in1031.2 mb 0.00 in0.0 mm 0.00 in0.0 mm 0.00 in0.0 mm
09:58 AM 43.4°F6.3°C 38.9°F3.8°C 84% 3.8 mph SW6.1 kmh SW 7.6 mph12.2 kmh 30.47 in1031.8 mb 0.00 in0.0 mm 0.00 in0.0 mm 0.00 in0.0 mm
10:03 AM 43.8°F6.6°C 38.7°F3.7°C 82% 3.8 mph SW6.1 kmh SW 7.6 mph12.2 kmh 30.47 in1031.8 mb 0.00 in0.0 mm 0.00 in0.0 mm 0.00 in0.0 mm
10:08 AM 44.1°F6.7°C 38.6°F3.7°C 81% 4.8 mph WSW7.7 kmh WSW 8.0 mph12.9 kmh 30.47 in1031.8 mb 0.00 in0.0 mm 0.00 in0.0 mm 0.00 in0.0 mm
10:14 AM 44.7°F7.1°C 37.6°F3.1°C 76% 6.9 mph WSW11.1 kmh WSW 8.0 mph12.9 kmh 30.47 in1031.8 mb 0.00 in0.0 mm 0.00 in0.0 mm 0.00 in0.0 mm
10:19 AM 45.2°F7.3°C 38.1°F3.4°C 76% 4.8 mph WSW7.7 kmh WSW 8.0 mph12.9 kmh 30.47 in1031.8 mb 0.00 in0.0 mm 0.00 in0.0 mm 0.00 in0.0 mm
10:26 AM 45.8°F7.7°C 38.4°F3.6°C 75% 3.8 mph SW6.1 kmh SW 8.0 mph12.9 kmh 30.47 in1031.8 mb 0.00 in0.0 mm 0.00 in0.0 mm 0.00 in0.0 mm
10:31 AM 45.9°F7.7°C 38.1°F3.4°C 74% 4.0 mph SSW6.4 kmh SSW 8.0 mph12.9 kmh 30.45 in1031.2 mb 0.00 in0.0 mm 0.00 in0.0 mm 0.00 in0.0 mm
10:36 AM 45.9°F7.7°C 38.1°F3.4°C 74% 5.0 mph S8.0 kmh S 8.0 mph12.9 kmh 30.45 in1031.2 mb 0.00 in0.0 mm 0.00 in0.0 mm 0.00 in0.0 mm
10:41 AM 45.9°F7.7°C 37.8°F3.2°C 73% 4.9 mph SSW7.9 kmh SSW 7.2 mph11.6 kmh 30.45 in1031.2 mb 0.00 in0.0 mm 0.00 in0.0 mm 0.00 in0.0 mm
10:46 AM 46.1°F7.8°C 38.0°F3.3°C 73% 4.7 mph SW7.6 kmh SW 7.2 mph11.6 kmh 30.42 in1030.1 mb 0.00 in0.0 mm 0.00 in0.0 mm 0.00 in0.0 mm
10:51 AM 45.9°F7.7°C 37.8°F3.2°C 73% 6.3 mph WSW10.1 kmh WSW 7.6 mph12.2 kmh 30.42 in1030.1 mb 0.00 in0.0 mm 0.00 in0.0 mm 0.00 in0.0 mm
10:56 AM 45.9°F7.7°C 37.8°F3.2°C 73% 4.6 mph W7.4 kmh W 7.6 mph12.2 kmh 30.42 in1030.1 mb 0.00 in0.0 mm 0.00 in0.0 mm 0.00 in0.0 mm
11:01 AM 46.1°F7.8°C 38.3°F3.5°C 74% 4.8 mph W7.7 kmh W 7.2 mph11.6 kmh 30.45 in1031.2 mb 0.00 in0.0 mm 0.00 in0.0 mm 0.00 in0.0 mm
11:06 AM 46.5°F8.1°C 38.7°F3.7°C 74% 3.4 mph E5.5 kmh E 6.8 mph10.9 kmh 30.45 in1031.2 mb 0.00 in0.0 mm 0.00 in0.0 mm 0.00 in0.0 mm
11:11 AM 46.7°F8.2°C 38.6°F3.7°C 73% 4.5 mph SW7.2 kmh SW 7.2 mph11.6 kmh 30.45 in1031.2 mb 0.00 in0.0 mm 0.00 in0.0 mm 0.00 in0.0 mm
11:16 AM 46.8°F8.2°C 38.3°F3.5°C 72% 5.1 mph SW8.2 kmh SW 7.2 mph11.6 kmh 30.42 in1030.1 mb 0.00 in0.0 mm 0.00 in0.0 mm 0.00 in0.0 mm
11:21 AM 47.2°F8.4°C 39.0°F3.9°C 73% 3.8 mph S6.1 kmh S 8.0 mph12.9 kmh 30.42 in1030.1 mb 0.00 in0.0 mm 0.00 in0.0 mm 0.00 in0.0 mm
11:26 AM 47.4°F8.6°C 38.9°F3.8°C 72% 5.0 mph SW8.0 kmh SW 8.0 mph12.9 kmh 30.42 in1030.1 mb 0.00 in0.0 mm 0.00 in0.0 mm 0.00 in0.0 mm
11:31 AM 47.4°F8.6°C 38.5°F3.6°C 71% 4.4 mph SW7.1 kmh SW 7.6 mph12.2 kmh 30.45 in1031.2 mb 0.00 in0.0 mm 0.00 in0.0 mm 0.00 in0.0 mm
11:37 AM 47.7°F8.7°C 39.2°F4.0°C 72% 3.8 mph S6.1 kmh S 7.6 mph12.2 kmh 30.45 in1031.2 mb 0.00 in0.0 mm 0.00 in0.0 mm 0.00 in0.0 mm
11:42 AM 47.7°F8.7°C 39.2°F4.0°C 72% 3.8 mph SW6.1 kmh SW 7.2 mph11.6 kmh 30.45 in1031.2 mb 0.00 in0.0 mm 0.00 in0.0 mm 0.00 in0.0 mm
11:47 AM 47.7°F8.7°C 38.8°F3.8°C 71% 5.8 mph SW9.3 kmh SW 7.6 mph12.2 kmh 30.45 in1031.2 mb 0.00 in0.0 mm 0.00 in0.0 mm 0.00 in0.0 mm
11:52 AM 47.9°F8.8°C 39.4°F4.1°C 72% 4.5 mph S7.2 kmh S 8.0 mph12.9 kmh 30.45 in1031.2 mb 0.00 in0.0 mm 0.00 in0.0 mm 0.00 in0.0 mm
11:57 AM 47.9°F8.8°C 39.4°F4.1°C 72% 3.9 mph S6.3 kmh S 8.0 mph12.9 kmh 30.45 in1031.2 mb 0.00 in0.0 mm 0.00 in0.0 mm 0.00 in0.0 mm
12:02 PM 47.9°F8.8°C 39.0°F3.9°C 71% 6.6 mph SW10.6 kmh SW 8.6 mph13.8 kmh 30.45 in1031.2 mb 0.00 in0.0 mm 0.00 in0.0 mm 0.00 in0.0 mm
12:08 PM 48.1°F8.9°C 38.9°F3.8°C 70% 7.3 mph WSW11.7 kmh WSW 13.0 mph20.9 kmh 30.45 in1031.2 mb 0.00 in0.0 mm 0.00 in0.0 mm 0.00 in0.0 mm
12:13 PM 48.5°F9.2°C 39.6°F4.2°C 71% 4.9 mph SE7.9 kmh SE 13.0 mph20.9 kmh 30.45 in1031.2 mb 0.00 in0.0 mm 0.00 in0.0 mm 0.00 in0.0 mm
12:18 PM 48.6°F9.2°C 39.3°F4.1°C 70% 6.2 mph S10.0 kmh S 13.0 mph20.9 kmh 30.45 in1031.2 mb 0.00 in0.0 mm 0.00 in0.0 mm 0.00 in0.0 mm
12:23 PM 48.8°F9.3°C 39.2°F4.0°C 69% 6.1 mph WSW9.8 kmh WSW 9.4 mph15.1 kmh 30.45 in1031.2 mb 0.00 in0.0 mm 0.00 in0.0 mm 0.00 in0.0 mm
12:28 PM 49.4°F9.7°C 40.5°F4.7°C 71% 2.6 mph WSW4.2 kmh WSW 9.4 mph15.1 kmh 30.45 in1031.2 mb 0.00 in0.0 mm 0.00 in0.0 mm 0.00 in0.0 mm
12:33 PM 50.1°F10.1°C 40.8°F4.9°C 70% 2.2 mph SSE3.5 kmh SSE 6.2 mph10.0 kmh 30.45 in1031.2 mb 0.00 in0.0 mm 0.00 in0.0 mm 0.00 in0.0 mm
12:38 PM 50.4°F10.2°C 40.3°F4.6°C 68% 4.8 mph S7.7 kmh S 7.2 mph11.6 kmh 30.45 in1031.2 mb 0.00 in0.0 mm 0.00 in0.0 mm 0.00 in0.0 mm
12:43 PM 50.6°F10.3°C 40.1°F4.5°C 67% 6.2 mph SSE10.0 kmh SSE 7.6 mph12.2 kmh 30.42 in1030.1 mb 0.00 in0.0 mm 0.00 in0.0 mm 0.00 in0.0 mm
12:48 PM 50.6°F10.3°C 39.7°F4.3°C 66% 5.2 mph S8.4 kmh S 8.6 mph13.8 kmh 30.42 in1030.1 mb 0.00 in0.0 mm 0.00 in0.0 mm 0.00 in0.0 mm
12:53 PM 51.0°F10.6°C 40.1°F4.5°C 66% 4.9 mph WSW7.9 kmh WSW 8.6 mph13.8 kmh 30.42 in1030.1 mb 0.00 in0.0 mm 0.00 in0.0 mm 0.00 in0.0 mm
12:58 PM 51.3°F10.7°C 40.4°F4.7°C 66% 5.3 mph SW8.5 kmh SW 7.6 mph12.2 kmh 30.45 in1031.2 mb 0.00 in0.0 mm 0.00 in0.0 mm 0.00 in0.0 mm
01:03 PM 51.5°F10.8°C 40.6°F4.8°C 66% 4.6 mph NW7.4 kmh NW 9.4 mph15.1 kmh 30.45 in1031.2 mb 0.00 in0.0 mm 0.00 in0.0 mm 0.00 in0.0 mm
01:08 PM 51.5°F10.8°C 39.8°F4.3°C 64% 7.4 mph W11.9 kmh W 9.8 mph15.8 kmh 30.45 in1031.2 mb 0.00 in0.0 mm 0.00 in0.0 mm 0.00 in0.0 mm
01:13 PM 51.9°F11.1°C 40.2°F4.6°C 64% 5.2 mph SW8.4 kmh SW 9.8 mph15.8 kmh 30.42 in1030.1 mb 0.00 in0.0 mm 0.00 in0.0 mm 0.00 in0.0 mm
01:18 PM 52.4°F11.3°C 40.7°F4.8°C 64% 5.7 mph WSW9.2 kmh WSW 8.0 mph12.9 kmh 30.42 in1030.1 mb 0.00 in0.0 mm 0.00 in0.0 mm 0.00 in0.0 mm
01:23 PM 52.2°F11.2°C 40.5°F4.7°C 64% 4.9 mph SSE7.9 kmh SSE 8.6 mph13.8 kmh 30.42 in1030.1 mb 0.00 in0.0 mm 0.00 in0.0 mm 0.00 in0.0 mm
01:29 PM 52.2°F11.2°C 40.5°F4.7°C 64% 7.1 mph S11.4 kmh S 9.8 mph15.8 kmh 30.39 in1029.1 mb 0.00 in0.0 mm 0.00 in0.0 mm 0.00 in0.0 mm
01:34 PM 52.1°F11.2°C 40.4°F4.7°C 64% 5.5 mph W8.9 kmh W 9.8 mph15.8 kmh 30.39 in1029.1 mb 0.00 in0.0 mm 0.00 in0.0 mm 0.00 in0.0 mm
01:39 PM 52.6°F11.4°C 41.3°F5.2°C 65% 5.4 mph WSW8.7 kmh WSW 9.8 mph15.8 kmh 30.39 in1029.1 mb 0.00 in0.0 mm 0.00 in0.0 mm 0.00 in0.0 mm
01:44 PM 52.8°F11.6°C 41.0°F5.0°C 64% 6.1 mph WSW9.8 kmh WSW 9.8 mph15.8 kmh 30.39 in1029.1 mb 0.00 in0.0 mm 0.00 in0.0 mm 0.00 in0.0 mm
01:50 PM 53.0°F11.7°C 40.8°F4.9°C 63% 6.9 mph WNW11.1 kmh WNW 11.2 mph18.0 kmh 30.39 in1029.1 mb 0.00 in0.0 mm 0.00 in0.0 mm 0.00 in0.0 mm
01:55 PM 53.9°F12.2°C 41.7°F5.4°C 63% 3.4 mph W5.5 kmh W 10.8 mph17.4 kmh 30.39 in1029.1 mb 0.00 in0.0 mm 0.00 in0.0 mm 0.00 in0.0 mm
02:00 PM 54.0°F12.2°C 41.8°F5.4°C 63% 3.9 mph NNE6.3 kmh NNE 6.8 mph10.9 kmh 30.42 in1030.1 mb 0.00 in0.0 mm 0.00 in0.0 mm 0.00 in0.0 mm
02:05 PM 54.4°F12.4°C 41.3°F5.2°C 61% 7.0 mph S11.3 kmh S 12.0 mph19.3 kmh 30.42 in1030.1 mb 0.00 in0.0 mm 0.00 in0.0 mm 0.00 in0.0 mm
02:10 PM 54.2°F12.3°C 41.1°F5.1°C 61% 6.2 mph WSW10.0 kmh WSW 12.0 mph19.3 kmh 30.42 in1030.1 mb 0.00 in0.0 mm 0.00 in0.0 mm 0.00 in0.0 mm
02:15 PM 54.4°F12.4°C 41.7°F5.4°C 62% 4.2 mph S6.8 kmh S 7.2 mph11.6 kmh 30.39 in1029.1 mb 0.00 in0.0 mm 0.00 in0.0 mm 0.00 in0.0 mm
02:20 PM 54.4°F12.4°C 42.2°F5.7°C 63% 3.1 mph SW5.0 kmh SW 7.6 mph12.2 kmh 30.39 in1029.1 mb 0.00 in0.0 mm 0.00 in0.0 mm 0.00 in0.0 mm
02:25 PM 54.2°F12.3°C 42.0°F5.6°C 63% 4.5 mph WSW7.2 kmh WSW 7.6 mph12.2 kmh 30.39 in1029.1 mb 0.00 in0.0 mm 0.00 in0.0 mm 0.00 in0.0 mm
02:31 PM 54.4°F12.4°C 42.6°F5.9°C 64% 2.7 mph S4.3 kmh S 8.0 mph12.9 kmh 30.39 in1029.1 mb 0.00 in0.0 mm 0.00 in0.0 mm 0.00 in0.0 mm
02:36 PM 54.4°F12.4°C 42.6°F5.9°C 64% 3.7 mph WSW6.0 kmh WSW 8.0 mph12.9 kmh 30.39 in1029.1 mb 0.00 in0.0 mm 0.00 in0.0 mm 0.00 in0.0 mm
02:41 PM 54.6°F12.6°C 42.8°F6.0°C 64% 5.4 mph SW8.7 kmh SW 5.8 mph9.3 kmh 30.39 in1029.1 mb 0.00 in0.0 mm 0.00 in0.0 mm 0.00 in0.0 mm
02:46 PM 54.9°F12.7°C 43.0°F6.1°C 64% 5.4 mph WNW8.7 kmh WNW 7.6 mph12.2 kmh 30.39 in1029.1 mb 0.00 in0.0 mm 0.00 in0.0 mm 0.00 in0.0 mm
02:52 PM 55.3°F12.9°C 43.8°F6.6°C 65% 2.7 mph S4.3 kmh S 7.6 mph12.2 kmh 30.39 in1029.1 mb 0.00 in0.0 mm 0.00 in0.0 mm 0.00 in0.0 mm
02:59 PM 56.2°F13.4°C 44.3°F6.8°C 64% 2.4 mph SSW3.9 kmh SSW 6.2 mph10.0 kmh 30.36 in1028.1 mb 0.00 in0.0 mm 0.00 in0.0 mm 0.00 in0.0 mm
03:04 PM 56.7°F13.7°C 44.3°F6.8°C 63% 5.1 mph S8.2 kmh S 8.0 mph12.9 kmh 30.36 in1028.1 mb 0.00 in0.0 mm 0.00 in0.0 mm 0.00 in0.0 mm
03:09 PM 57.1°F13.9°C 44.3°F6.8°C 62% 4.8 mph W7.7 kmh W 8.0 mph12.9 kmh 30.36 in1028.1 mb 0.00 in0.0 mm 0.00 in0.0 mm 0.00 in0.0 mm
03:14 PM 57.3°F14.1°C 44.5°F6.9°C 62% 4.7 mph WSW7.6 kmh WSW 8.6 mph13.8 kmh 30.36 in1028.1 mb 0.00 in0.0 mm 0.00 in0.0 mm 0.00 in0.0 mm
03:19 PM 57.1°F13.9°C 44.7°F7.1°C 63% 3.6 mph S5.8 kmh S 8.6 mph13.8 kmh 30.36 in1028.1 mb 0.00 in0.0 mm 0.00 in0.0 mm 0.00 in0.0 mm
03:24 PM 57.3°F14.1°C 44.9°F7.2°C 63% 4.3 mph S6.9 kmh S 7.2 mph11.6 kmh 30.36 in1028.1 mb 0.00 in0.0 mm 0.00 in0.0 mm 0.00 in0.0 mm
03:29 PM 57.3°F14.1°C 45.3°F7.4°C 64% 5.1 mph WSW8.2 kmh WSW 7.6 mph12.2 kmh 30.33 in1027.1 mb 0.00 in0.0 mm 0.00 in0.0 mm 0.00 in0.0 mm
03:34 PM 57.6°F14.2°C 45.6°F7.6°C 64% 4.4 mph SW7.1 kmh SW 7.6 mph12.2 kmh 30.33 in1027.1 mb 0.00 in0.0 mm 0.00 in0.0 mm 0.00 in0.0 mm
03:40 PM 58.0°F14.4°C 46.0°F7.8°C 64% 4.9 mph S7.9 kmh S 7.6 mph12.2 kmh 30.33 in1027.1 mb 0.00 in0.0 mm 0.00 in0.0 mm 0.00 in0.0 mm
03:45 PM 58.4°F14.7°C 46.4°F8.0°C 64% 4.9 mph S7.9 kmh S 7.6 mph12.2 kmh 30.33 in1027.1 mb 0.00 in0.0 mm 0.00 in0.0 mm 0.00 in0.0 mm
03:50 PM 58.7°F14.8°C 46.2°F7.9°C 63% 4.4 mph WNW7.1 kmh WNW 6.2 mph10.0 kmh 30.33 in1027.1 mb 0.00 in0.0 mm 0.00 in0.0 mm 0.00 in0.0 mm
03:55 PM 58.9°F14.9°C 46.4°F8.0°C 63% 3.7 mph SSE6.0 kmh SSE 6.8 mph10.9 kmh 30.33 in1027.1 mb 0.00 in0.0 mm 0.00 in0.0 mm 0.00 in0.0 mm
04:00 PM 59.1°F15.1°C 46.6°F8.1°C 63% 3.6 mph SW5.8 kmh SW 6.8 mph10.9 kmh 30.33 in1027.1 mb 0.00 in0.0 mm 0.00 in0.0 mm 0.00 in0.0 mm
04:05 PM 59.3°F15.2°C 47.2°F8.4°C 64% 4.8 mph S7.7 kmh S 7.2 mph11.6 kmh 30.33 in1027.1 mb 0.00 in0.0 mm 0.00 in0.0 mm 0.00 in0.0 mm
04:10 PM 59.3°F15.2°C 47.2°F8.4°C 64% 5.2 mph SSW8.4 kmh SSW 7.2 mph11.6 kmh 30.33 in1027.1 mb 0.00 in0.0 mm 0.00 in0.0 mm 0.00 in0.0 mm
04:15 PM 59.3°F15.2°C 47.6°F8.7°C 65% 5.2 mph SW8.4 kmh SW 7.2 mph11.6 kmh 30.30 in1026.1 mb 0.00 in0.0 mm 0.00 in0.0 mm 0.00 in0.0 mm
04:20 PM 59.1°F15.1°C 47.4°F8.6°C 65% 6.2 mph SW10.0 kmh SW 8.0 mph12.9 kmh 30.30 in1026.1 mb 0.00 in0.0 mm 0.00 in0.0 mm 0.00 in0.0 mm
04:25 PM 58.9°F14.9°C 47.7°F8.7°C 66% 3.9 mph SW6.3 kmh SW 11.6 mph18.7 kmh 30.30 in1026.1 mb 0.00 in0.0 mm 0.00 in0.0 mm 0.00 in0.0 mm
04:30 PM 58.5°F14.7°C 47.3°F8.5°C 66% 4.4 mph SW7.1 kmh SW 11.6 mph18.7 kmh 30.33 in1027.1 mb 0.00 in0.0 mm 0.00 in0.0 mm 0.00 in0.0 mm
04:35 PM 58.7°F14.8°C 47.9°F8.8°C 67% 5.5 mph WSW8.9 kmh WSW 11.6 mph18.7 kmh 30.33 in1027.1 mb 0.00 in0.0 mm 0.00 in0.0 mm 0.00 in0.0 mm
04:40 PM 59.3°F15.2°C 48.8°F9.3°C 68% 4.3 mph S6.9 kmh S 8.0 mph12.9 kmh 30.33 in1027.1 mb 0.00 in0.0 mm 0.00 in0.0 mm 0.00 in0.0 mm
04:46 PM 60.1°F15.6°C 48.5°F9.2°C 65% 6.5 mph SSW10.5 kmh SSW 11.6 mph18.7 kmh 30.33 in1027.1 mb 0.00 in0.0 mm 0.00 in0.0 mm 0.00 in0.0 mm
04:51 PM 60.2°F15.7°C 48.2°F9.0°C 64% 6.5 mph SSW10.5 kmh SSW 11.6 mph18.7 kmh 30.33 in1027.1 mb 0.00 in0.0 mm 0.00 in0.0 mm 0.00 in0.0 mm
04:56 PM 59.9°F15.5°C 47.9°F8.8°C 64% 5.6 mph SW9.0 kmh SW 8.0 mph12.9 kmh 30.33 in1027.1 mb 0.00 in0.0 mm 0.00 in0.0 mm 0.00 in0.0 mm
05:01 PM 59.9°F15.5°C 48.3°F9.1°C 65% 6.5 mph W10.5 kmh W 8.6 mph13.8 kmh 30.33 in1027.1 mb 0.00 in0.0 mm 0.00 in0.0 mm 0.00 in0.0 mm
05:06 PM 59.1°F15.1°C 47.4°F8.6°C 65% 4.4 mph W7.1 kmh W 8.6 mph13.8 kmh 30.33 in1027.1 mb 0.00 in0.0 mm 0.00 in0.0 mm 0.00 in0.0 mm
05:11 PM 59.3°F15.2°C 48.0°F8.9°C 66% 3.5 mph SSE5.6 kmh SSE 8.6 mph13.8 kmh 30.33 in1027.1 mb 0.00 in0.0 mm 0.00 in0.0 mm 0.00 in0.0 mm
05:16 PM 59.4°F15.2°C 48.5°F9.2°C 67% 3.9 mph S6.3 kmh S 6.2 mph10.0 kmh 30.33 in1027.1 mb 0.00 in0.0 mm 0.00 in0.0 mm 0.00 in0.0 mm
05:21 PM 59.8°F15.4°C 48.9°F9.4°C 67% 4.9 mph S7.9 kmh S 6.2 mph10.0 kmh 30.33 in1027.1 mb 0.00 in0.0 mm 0.00 in0.0 mm 0.00 in0.0 mm
05:26 PM 59.9°F15.5°C 49.1°F9.5°C 67% 4.4 mph SW7.1 kmh SW 7.2 mph11.6 kmh 30.33 in1027.1 mb 0.00 in0.0 mm 0.00 in0.0 mm 0.00 in0.0 mm
05:31 PM 59.6°F15.3°C 48.7°F9.3°C 67% 4.5 mph WSW7.2 kmh WSW 8.0 mph12.9 kmh 30.30 in1026.1 mb 0.00 in0.0 mm 0.00 in0.0 mm 0.00 in0.0 mm
05:38 PM 59.4°F15.2°C 48.5°F9.2°C 67% 6.1 mph S9.8 kmh S 8.0 mph12.9 kmh 30.30 in1026.1 mb 0.00 in0.0 mm 0.00 in0.0 mm 0.00 in0.0 mm
05:43 PM 59.1°F15.1°C 48.6°F9.2°C 68% 2.4 mph S3.9 kmh S 9.4 mph15.1 kmh 30.30 in1026.1 mb 0.00 in0.0 mm 0.00 in0.0 mm 0.00 in0.0 mm
05:48 PM 58.7°F14.8°C 48.6°F9.2°C 69% 2.5 mph SE4.0 kmh SE 5.8 mph9.3 kmh 30.30 in1026.1 mb 0.00 in0.0 mm 0.00 in0.0 mm 0.00 in0.0 mm
05:53 PM 58.5°F14.7°C 48.8°F9.3°C 70% 4.4 mph S7.1 kmh S 6.2 mph10.0 kmh 30.30 in1026.1 mb 0.00 in0.0 mm 0.00 in0.0 mm 0.00 in0.0 mm
05:58 PM 58.5°F14.7°C 48.8°F9.3°C 70% Calm Calm 6.2 mph10.0 kmh 30.27 in1025.1 mb 0.00 in0.0 mm 0.00 in0.0 mm 0.00 in0.0 mm
06:03 PM 58.5°F14.7°C 49.2°F9.6°C 71% 2.3 mph S3.7 kmh S 5.0 mph8.0 kmh 30.27 in1025.1 mb 0.00 in0.0 mm 0.00 in0.0 mm 0.00 in0.0 mm
06:09 PM 58.2°F14.6°C 49.3°F9.6°C 72% 3.9 mph S6.3 kmh S 5.0 mph8.0 kmh 30.27 in1025.1 mb 0.00 in0.0 mm 0.00 in0.0 mm 0.00 in0.0 mm
06:14 PM 57.8°F14.3°C 48.9°F9.4°C 72% 2.8 mph S4.5 kmh S 5.0 mph8.0 kmh 30.27 in1025.1 mb 0.00 in0.0 mm 0.00 in0.0 mm 0.00 in0.0 mm
06:20 PM 57.5°F14.2°C 48.6°F9.2°C 72% 2.2 mph S3.5 kmh S 5.0 mph8.0 kmh 30.27 in1025.1 mb 0.00 in0.0 mm 0.00 in0.0 mm 0.00 in0.0 mm
06:25 PM 57.3°F14.1°C 48.8°F9.3°C 73% 2.8 mph S4.5 kmh S 5.0 mph8.0 kmh 30.27 in1025.1 mb 0.00 in0.0 mm 0.00 in0.0 mm 0.00 in0.0 mm
06:30 PM 57.1°F13.9°C 48.6°F9.2°C 73% Calm Calm 4.0 mph6.4 kmh 30.27 in1025.1 mb 0.00 in0.0 mm 0.00 in0.0 mm 0.00 in0.0 mm
06:35 PM 56.9°F13.8°C 48.8°F9.3°C 74% 2.4 mph SSW3.9 kmh SSW 3.2 mph5.1 kmh 30.27 in1025.1 mb 0.00 in0.0 mm 0.00 in0.0 mm 0.00 in0.0 mm
06:40 PM 56.7°F13.7°C 48.9°F9.4°C 75% 2.2 mph SSW3.5 kmh SSW 4.0 mph6.4 kmh 30.27 in1025.1 mb 0.00 in0.0 mm 0.00 in0.0 mm 0.00 in0.0 mm
06:45 PM 56.6°F13.7°C 49.2°F9.6°C 76% Calm Calm 4.0 mph6.4 kmh 30.27 in1025.1 mb 0.00 in0.0 mm 0.00 in0.0 mm 0.00 in0.0 mm
06:51 PM 56.4°F13.6°C 49.0°F9.4°C 76% Calm Calm 2.6 mph4.2 kmh 30.27 in1025.1 mb 0.00 in0.0 mm 0.00 in0.0 mm 0.00 in0.0 mm
06:56 PM 56.0°F13.3°C 48.9°F9.4°C 77% Calm Calm -- 30.27 in1025.1 mb 0.00 in0.0 mm 0.00 in0.0 mm 0.00 in0.0 mm
07:01 PM 55.8°F13.2°C 48.7°F9.3°C 77% Calm Calm -- 30.27 in1025.1 mb 0.00 in0.0 mm 0.00 in0.0 mm 0.00 in0.0 mm
07:06 PM 55.5°F13.1°C 48.4°F9.1°C 77% Calm Calm -- 30.27 in1025.1 mb 0.00 in0.0 mm 0.00 in0.0 mm 0.00 in0.0 mm
07:11 PM 55.3°F12.9°C 48.9°F9.4°C 79% Calm Calm -- 30.27 in1025.1 mb 0.00 in0.0 mm 0.00 in0.0 mm 0.00 in0.0 mm
07:16 PM 55.1°F12.8°C 48.7°F9.3°C 79% Calm Calm -- 30.27 in1025.1 mb 0.00 in0.0 mm 0.00 in0.0 mm 0.00 in0.0 mm
07:21 PM 55.1°F12.8°C 49.4°F9.7°C 81% Calm Calm -- 30.27 in1025.1 mb 0.00 in0.0 mm 0.00 in0.0 mm 0.00 in0.0 mm
07:26 PM 54.6°F12.6°C 48.9°F9.4°C 81% Calm Calm 3.2 mph5.1 kmh 30.27 in1025.1 mb 0.00 in0.0 mm 0.00 in0.0 mm 0.00 in0.0 mm
07:31 PM 54.2°F12.3°C 48.5°F9.2°C 81% Calm Calm 3.2 mph5.1 kmh 30.27 in1025.1 mb 0.00 in0.0 mm 0.00 in0.0 mm 0.00 in0.0 mm
07:36 PM 53.9°F12.2°C 48.5°F9.2°C 82% Calm Calm -- 30.27 in1025.1 mb 0.00 in0.0 mm 0.00 in0.0 mm 0.00 in0.0 mm
08:06 PM 53.1°F11.7°C 49.6°F9.8°C 88% 1.8 mph SSW2.9 kmh SSW 5.8 mph9.3 kmh 30.24 in1024.0 mb 0.00 in0.0 mm 0.00 in0.0 mm 0.00 in0.0 mm
08:13 PM 53.3°F11.8°C 50.7°F10.4°C 91% 4.7 mph S7.6 kmh S 6.8 mph10.9 kmh 30.27 in1025.1 mb 0.00 in0.0 mm 0.00 in0.0 mm 0.00 in0.0 mm
08:18 PM 53.1°F11.7°C 50.2°F10.1°C 90% 3.3 mph S5.3 kmh S 6.8 mph10.9 kmh 30.27 in1025.1 mb 0.00 in0.0 mm 0.00 in0.0 mm 0.00 in0.0 mm
08:23 PM 53.5°F11.9°C 50.9°F10.5°C 91% 2.8 mph SSW4.5 kmh SSW 5.8 mph9.3 kmh 30.27 in1025.1 mb 0.00 in0.0 mm 0.00 in0.0 mm 0.00 in0.0 mm
08:28 PM 53.3°F11.8°C 50.7°F10.4°C 91% 3.1 mph SSW5.0 kmh SSW 5.0 mph8.0 kmh 30.30 in1026.1 mb 0.00 in0.0 mm 0.00 in0.0 mm 0.00 in0.0 mm
08:34 PM 53.7°F12.1°C 51.4°F10.8°C 92% 3.5 mph S5.6 kmh S 4.4 mph7.1 kmh 30.30 in1026.1 mb 0.00 in0.0 mm 0.00 in0.0 mm 0.00 in0.0 mm
08:39 PM 54.0°F12.2°C 51.7°F10.9°C 92% 3.3 mph SSW5.3 kmh SSW 5.4 mph8.7 kmh 30.30 in1026.1 mb 0.00 in0.0 mm 0.00 in0.0 mm 0.00 in0.0 mm
08:44 PM 54.0°F12.2°C 51.7°F10.9°C 92% 3.4 mph SSW5.5 kmh SSW 5.4 mph8.7 kmh 30.27 in1025.1 mb 0.00 in0.0 mm 0.00 in0.0 mm 0.00 in0.0 mm
08:49 PM 54.2°F12.3°C 52.1°F11.2°C 93% 3.5 mph SSW5.6 kmh SSW 5.0 mph8.0 kmh 30.27 in1025.1 mb 0.00 in0.0 mm 0.00 in0.0 mm 0.00 in0.0 mm
08:54 PM 54.2°F12.3°C 51.9°F11.1°C 92% 2.7 mph S4.3 kmh S 5.0 mph8.0 kmh 30.27 in1025.1 mb 0.00 in0.0 mm 0.00 in0.0 mm 0.00 in0.0 mm
08:59 PM 54.2°F12.3°C 51.9°F11.1°C 92% 3.3 mph SSW5.3 kmh SSW 4.4 mph7.1 kmh 30.27 in1025.1 mb 0.00 in0.0 mm 0.00 in0.0 mm 0.00 in0.0 mm
09:04 PM 54.2°F12.3°C 51.9°F11.1°C 92% 2.7 mph SW4.3 kmh SW 4.4 mph7.1 kmh 30.27 in1025.1 mb 0.00 in0.0 mm 0.00 in0.0 mm 0.00 in0.0 mm
09:09 PM 54.0°F12.2°C 51.7°F10.9°C 92% 3.2 mph SW5.1 kmh SW 4.4 mph7.1 kmh 30.27 in1025.1 mb 0.00 in0.0 mm 0.00 in0.0 mm 0.00 in0.0 mm
09:14 PM 53.9°F12.2°C 51.6°F10.9°C 92% 1.9 mph SW3.1 kmh SW 3.2 mph5.1 kmh 30.27 in1025.1 mb 0.00 in0.0 mm 0.00 in0.0 mm 0.00 in0.0 mm
09:19 PM 53.9°F12.2°C 51.6°F10.9°C 92% 2.7 mph S4.3 kmh S 4.0 mph6.4 kmh 30.27 in1025.1 mb 0.00 in0.0 mm 0.00 in0.0 mm 0.00 in0.0 mm
09:24 PM 53.9°F12.2°C 51.8°F11.0°C 93% 2.5 mph S4.0 kmh S 4.0 mph6.4 kmh 30.27 in1025.1 mb 0.00 in0.0 mm 0.00 in0.0 mm 0.00 in0.0 mm
09:29 PM 53.9°F12.2°C 51.8°F11.0°C 93% 3.3 mph SSE5.3 kmh SSE 5.8 mph9.3 kmh 30.27 in1025.1 mb 0.00 in0.0 mm 0.00 in0.0 mm 0.00 in0.0 mm
09:34 PM 53.5°F11.9°C 51.5°F10.8°C 93% Calm Calm 5.8 mph9.3 kmh 30.27 in1025.1 mb 0.00 in0.0 mm 0.00 in0.0 mm 0.00 in0.0 mm
09:39 PM 53.1°F11.7°C 51.1°F10.6°C 93% Calm Calm 3.2 mph5.1 kmh 30.27 in1025.1 mb 0.00 in0.0 mm 0.00 in0.0 mm 0.00 in0.0 mm
09:46 PM 53.3°F11.8°C 51.5°F10.8°C 94% 2.7 mph S4.3 kmh S 4.4 mph7.1 kmh 30.24 in1024.0 mb 0.00 in0.0 mm 0.00 in0.0 mm 0.00 in0.0 mm
09:51 PM 53.5°F11.9°C 52.0°F11.1°C 95% 3.7 mph S6.0 kmh S 5.0 mph8.0 kmh 30.24 in1024.0 mb 0.00 in0.0 mm 0.00 in0.0 mm 0.00 in0.0 mm
09:56 PM 53.5°F11.9°C 51.7°F10.9°C 94% 2.0 mph S3.2 kmh S 5.4 mph8.7 kmh 30.24 in1024.0 mb 0.00 in0.0 mm 0.00 in0.0 mm 0.00 in0.0 mm
10:01 PM 53.1°F11.7°C 51.3°F10.7°C 94% Calm Calm 5.4 mph8.7 kmh 30.27 in1025.1 mb 0.00 in0.0 mm 0.00 in0.0 mm 0.00 in0.0 mm
10:06 PM 53.0°F11.7°C 51.2°F10.7°C 94% Calm Calm 1.8 mph2.9 kmh 30.27 in1025.1 mb 0.00 in0.0 mm 0.00 in0.0 mm 0.00 in0.0 mm
10:11 PM 52.8°F11.6°C 51.0°F10.6°C 94% Calm Calm -- 30.27 in1025.1 mb 0.00 in0.0 mm 0.00 in0.0 mm 0.00 in0.0 mm
10:17 PM 52.6°F11.4°C 50.8°F10.4°C 94% Calm Calm -- 30.27 in1025.1 mb 0.00 in0.0 mm 0.00 in0.0 mm 0.00 in0.0 mm
10:22 PM 52.6°F11.4°C 50.8°F10.4°C 94% 2.2 mph S3.5 kmh S 2.2 mph3.5 kmh 30.27 in1025.1 mb 0.00 in0.0 mm 0.00 in0.0 mm 0.00 in0.0 mm
10:27 PM 52.8°F11.6°C 51.3°F10.7°C 95% 2.2 mph SSW3.5 kmh SSW 4.0 mph6.4 kmh 30.27 in1025.1 mb 0.00 in0.0 mm 0.00 in0.0 mm 0.00 in0.0 mm
10:32 PM 52.8°F11.6°C 51.6°F10.9°C 96% 3.0 mph S4.8 kmh S 4.0 mph6.4 kmh 30.24 in1024.0 mb 0.00 in0.0 mm 0.00 in0.0 mm 0.00 in0.0 mm
10:37 PM 53.3°F11.8°C 52.4°F11.3°C 97% 4.2 mph SSW6.8 kmh SSW 5.8 mph9.3 kmh 30.24 in1024.0 mb 0.00 in0.0 mm 0.00 in0.0 mm 0.00 in0.0 mm
10:42 PM 53.7°F12.1°C 53.1°F11.7°C 98% 5.1 mph S8.2 kmh S 7.2 mph11.6 kmh 30.24 in1024.0 mb 0.00 in0.0 mm 0.00 in0.0 mm 0.00 in0.0 mm
10:47 PM 54.2°F12.3°C 53.6°F12.0°C 98% 3.6 mph S5.8 kmh S 7.2 mph11.6 kmh 30.24 in1024.0 mb 0.00 in0.0 mm 0.00 in0.0 mm 0.00 in0.0 mm
10:52 PM 54.4°F12.4°C 53.8°F12.1°C 98% 3.9 mph SW6.3 kmh SW 7.2 mph11.6 kmh 30.24 in1024.0 mb 0.00 in0.0 mm 0.00 in0.0 mm 0.00 in0.0 mm
10:57 PM 54.6°F12.6°C 54.0°F12.2°C 98% 2.7 mph SSW4.3 kmh SSW 5.8 mph9.3 kmh 30.24 in1024.0 mb 0.00 in0.0 mm 0.00 in0.0 mm 0.00 in0.0 mm
11:02 PM 54.6°F12.6°C 54.0°F12.2°C 98% 3.3 mph SSW5.3 kmh SSW 5.0 mph8.0 kmh 30.24 in1024.0 mb 0.00 in0.0 mm 0.00 in0.0 mm 0.00 in0.0 mm
11:07 PM 54.6°F12.6°C 53.7°F12.1°C 97% 1.9 mph SSW3.1 kmh SSW 5.0 mph8.0 kmh 30.24 in1024.0 mb 0.00 in0.0 mm 0.00 in0.0 mm 0.00 in0.0 mm
11:12 PM 54.4°F12.4°C 53.5°F11.9°C 97% 3.2 mph WSW5.1 kmh WSW 4.0 mph6.4 kmh 30.24 in1024.0 mb 0.00 in0.0 mm 0.00 in0.0 mm 0.00 in0.0 mm
11:18 PM 54.6°F12.6°C 53.7°F12.1°C 97% 3.6 mph S5.8 kmh S 5.0 mph8.0 kmh 30.24 in1024.0 mb 0.00 in0.0 mm 0.00 in0.0 mm 0.00 in0.0 mm
11:23 PM 54.6°F12.6°C 54.0°F12.2°C 98% 3.0 mph S4.8 kmh S 5.0 mph8.0 kmh 30.24 in1024.0 mb 0.00 in0.0 mm 0.00 in0.0 mm 0.00 in0.0 mm
11:29 PM 54.6°F12.6°C 54.0°F12.2°C 98% 2.0 mph SSW3.2 kmh SSW 5.4 mph8.7 kmh 30.24 in1024.0 mb 0.00 in0.0 mm 0.00 in0.0 mm 0.00 in0.0 mm
11:34 PM 54.8°F12.7°C 54.2°F12.3°C 98% 3.8 mph SSW6.1 kmh SSW 5.4 mph8.7 kmh 30.24 in1024.0 mb 0.00 in0.0 mm 0.00 in0.0 mm 0.00 in0.0 mm
11:39 PM 54.9°F12.7°C 54.3°F12.4°C 98% 4.1 mph SW6.6 kmh SW 5.4 mph8.7 kmh 30.24 in1024.0 mb 0.00 in0.0 mm 0.00 in0.0 mm 0.00 in0.0 mm
11:44 PM 54.8°F12.7°C 54.2°F12.3°C 98% 3.0 mph SSW4.8 kmh SSW 5.4 mph8.7 kmh 30.24 in1024.0 mb 0.00 in0.0 mm 0.00 in0.0 mm 0.00 in0.0 mm
11:49 PM 54.9°F12.7°C 54.3°F12.4°C 98% 3.6 mph SSW5.8 kmh SSW 5.4 mph8.7 kmh 30.24 in1024.0 mb 0.00 in0.0 mm 0.00 in0.0 mm 0.00 in0.0 mm
11:54 PM 55.1°F12.8°C 54.5°F12.5°C 98% 3.8 mph SSW6.1 kmh SSW 5.4 mph8.7 kmh 30.24 in1024.0 mb 0.00 in0.0 mm 0.00 in0.0 mm 0.00 in0.0 mm
11:59 PM 55.1°F12.8°C 54.5°F12.5°C 98% 3.7 mph SSW6.0 kmh SSW 5.0 mph8.0 kmh 30.24 in1024.0 mb 0.00 in0.0 mm 0.00 in0.0 mm 0.00 in0.0 mm